sensor_id;sensor_type;location;lat;lon;timestamp;pressure;altitude;pressure_sealevel;temperature;humidity
61814;BME280;57055;-35.296;149.168;2022-07-22T00:02:27;96520.23;;;8.31;62.24
61814;BME280;57055;-35.296;149.168;2022-07-22T00:04:56;96517.90;;;8.31;61.89
61814;BME280;57055;-35.296;149.168;2022-07-22T00:07:24;96521.88;;;8.41;61.54
61814;BME280;57055;-35.296;149.168;2022-07-22T00:09:53;96519.46;;;8.36;60.33
61814;BME280;57055;-35.296;149.168;2022-07-22T00:12:22;96512.13;;;8.20;60.14
61814;BME280;57055;-35.296;149.168;2022-07-22T00:14:51;96513.24;;;8.51;60.43
61814;BME280;57055;-35.296;149.168;2022-07-22T00:17:19;96513.22;;;8.31;60.63
61814;BME280;57055;-35.296;149.168;2022-07-22T00:19:48;96508.60;;;8.63;60.07
61814;BME280;57055;-35.296;149.168;2022-07-22T00:22:18;96499.67;;;8.47;59.40
61814;BME280;57055;-35.296;149.168;2022-07-22T00:24:46;96497.06;;;8.70;58.64
61814;BME280;57055;-35.296;149.168;2022-07-22T00:27:15;96494.66;;;8.58;58.83
61814;BME280;57055;-35.296;149.168;2022-07-22T00:29:44;96489.32;;;8.63;58.69
61814;BME280;57055;-35.296;149.168;2022-07-22T00:32:13;96480.75;;;8.62;57.85
61814;BME280;57055;-35.296;149.168;2022-07-22T00:34:41;96486.13;;;8.55;58.25
61814;BME280;57055;-35.296;149.168;2022-07-22T00:37:10;96481.25;;;8.51;58.16
61814;BME280;57055;-35.296;149.168;2022-07-22T00:39:39;96480.02;;;8.49;58.60
61814;BME280;57055;-35.296;149.168;2022-07-22T00:42:08;96472.76;;;8.78;58.64
61814;BME280;57055;-35.296;149.168;2022-07-22T00:44:37;96469.38;;;8.99;58.92
61814;BME280;57055;-35.296;149.168;2022-07-22T00:47:07;96461.75;;;9.03;58.00
61814;BME280;57055;-35.296;149.168;2022-07-22T00:49:36;96460.12;;;9.17;57.50
61814;BME280;57055;-35.296;149.168;2022-07-22T00:52:05;96458.43;;;9.01;58.31
61814;BME280;57055;-35.296;149.168;2022-07-22T00:54:37;96453.96;;;9.24;58.39
61814;BME280;57055;-35.296;149.168;2022-07-22T00:57:07;96456.91;;;9.59;56.56
61814;BME280;57055;-35.296;149.168;2022-07-22T00:59:36;96452.72;;;9.63;57.00
61814;BME280;57055;-35.296;149.168;2022-07-22T01:02:05;96451.95;;;9.78;56.50
61814;BME280;57055;-35.296;149.168;2022-07-22T01:04:35;96453.77;;;9.72;57.24
61814;BME280;57055;-35.296;149.168;2022-07-22T01:07:04;96451.02;;;9.84;56.96
61814;BME280;57055;-35.296;149.168;2022-07-22T01:09:34;96441.22;;;9.48;56.96
61814;BME280;57055;-35.296;149.168;2022-07-22T01:12:03;96443.19;;;9.47;57.20
61814;BME280;57055;-35.296;149.168;2022-07-22T01:14:32;96431.26;;;9.42;57.22
61814;BME280;57055;-35.296;149.168;2022-07-22T01:17:01;96430.45;;;9.31;57.74
61814;BME280;57055;-35.296;149.168;2022-07-22T01:19:30;96433.31;;;8.81;57.72
61814;BME280;57055;-35.296;149.168;2022-07-22T01:21:59;96423.64;;;8.87;57.91
61814;BME280;57055;-35.296;149.168;2022-07-22T01:24:29;96412.22;;;8.83;58.36
61814;BME280;57055;-35.296;149.168;2022-07-22T01:27:00;96403.63;;;8.91;58.67
61814;BME280;57055;-35.296;149.168;2022-07-22T01:29:29;96401.10;;;9.19;56.73
61814;BME280;57055;-35.296;149.168;2022-07-22T01:31:58;96397.26;;;9.30;56.27
61814;BME280;57055;-35.296;149.168;2022-07-22T01:34:27;96395.96;;;9.27;56.33
61814;BME280;57055;-35.296;149.168;2022-07-22T01:36:56;96393.95;;;9.65;54.72
61814;BME280;57055;-35.296;149.168;2022-07-22T01:39:25;96385.49;;;9.47;53.95
61814;BME280;57055;-35.296;149.168;2022-07-22T01:41:54;96380.48;;;9.51;54.94
61814;BME280;57055;-35.296;149.168;2022-07-22T01:44:23;96380.96;;;9.42;55.45
61814;BME280;57055;-35.296;149.168;2022-07-22T01:46:53;96378.61;;;9.33;55.46
61814;BME280;57055;-35.296;149.168;2022-07-22T01:49:21;96377.62;;;9.48;54.85
61814;BME280;57055;-35.296;149.168;2022-07-22T01:51:51;96372.00;;;9.60;55.08
61814;BME280;57055;-35.296;149.168;2022-07-22T01:54:20;96367.88;;;9.57;54.69
61814;BME280;57055;-35.296;149.168;2022-07-22T01:56:49;96362.30;;;9.52;54.70
61814;BME280;57055;-35.296;149.168;2022-07-22T01:59:20;96359.25;;;9.49;54.53
61814;BME280;57055;-35.296;149.168;2022-07-22T02:01:49;96359.50;;;9.52;54.36
61814;BME280;57055;-35.296;149.168;2022-07-22T02:04:18;96349.68;;;9.36;54.86
61814;BME280;57055;-35.296;149.168;2022-07-22T02:06:47;96349.48;;;9.50;54.79
61814;BME280;57055;-35.296;149.168;2022-07-22T02:09:16;96339.61;;;9.66;55.60
61814;BME280;57055;-35.296;149.168;2022-07-22T02:11:45;96335.76;;;10.00;55.20
61814;BME280;57055;-35.296;149.168;2022-07-22T02:14:14;96333.47;;;9.61;53.75
61814;BME280;57055;-35.296;149.168;2022-07-22T02:16:43;96335.40;;;9.75;54.30
61814;BME280;57055;-35.296;149.168;2022-07-22T02:19:12;96325.20;;;9.63;53.79
61814;BME280;57055;-35.296;149.168;2022-07-22T02:21:40;96318.90;;;9.53;55.11
61814;BME280;57055;-35.296;149.168;2022-07-22T02:24:09;96312.53;;;9.73;54.81
61814;BME280;57055;-35.296;149.168;2022-07-22T02:26:39;96309.26;;;9.69;54.55
61814;BME280;57055;-35.296;149.168;2022-07-22T02:29:09;96310.94;;;9.92;54.17
61814;BME280;57055;-35.296;149.168;2022-07-22T02:31:38;96318.54;;;9.59;53.82
61814;BME280;57055;-35.296;149.168;2022-07-22T02:34:07;96306.35;;;9.64;52.89
61814;BME280;57055;-35.296;149.168;2022-07-22T02:36:37;96295.55;;;9.71;52.70
61814;BME280;57055;-35.296;149.168;2022-07-22T02:39:07;96287.91;;;9.80;52.64
61814;BME280;57055;-35.296;149.168;2022-07-22T02:41:37;96288.25;;;9.98;52.21
61814;BME280;57055;-35.296;149.168;2022-07-22T02:44:06;96283.76;;;9.70;51.69
61814;BME280;57055;-35.296;149.168;2022-07-22T02:46:35;96278.90;;;9.89;51.69
61814;BME280;57055;-35.296;149.168;2022-07-22T02:49:05;96273.43;;;9.98;51.73
61814;BME280;57055;-35.296;149.168;2022-07-22T02:51:33;96270.89;;;10.18;51.79
61814;BME280;57055;-35.296;149.168;2022-07-22T02:54:02;96257.51;;;9.55;52.32
61814;BME280;57055;-35.296;149.168;2022-07-22T02:56:32;96258.18;;;10.05;53.44
61814;BME280;57055;-35.296;149.168;2022-07-22T02:59:00;96254.27;;;9.71;53.72
61814;BME280;57055;-35.296;149.168;2022-07-22T03:01:29;96255.90;;;9.93;54.77
61814;BME280;57055;-35.296;149.168;2022-07-22T03:03:59;96255.38;;;9.57;55.22
61814;BME280;57055;-35.296;149.168;2022-07-22T03:06:28;96263.13;;;9.83;55.81
61814;BME280;57055;-35.296;149.168;2022-07-22T03:08:58;96257.93;;;9.64;55.69
61814;BME280;57055;-35.296;149.168;2022-07-22T03:11:27;96253.29;;;9.59;57.35
61814;BME280;57055;-35.296;149.168;2022-07-22T03:13:55;96248.92;;;9.46;58.04
61814;BME280;57055;-35.296;149.168;2022-07-22T03:16:24;96248.31;;;9.57;58.27
61814;BME280;57055;-35.296;149.168;2022-07-22T03:18:53;96245.89;;;9.66;57.99
61814;BME280;57055;-35.296;149.168;2022-07-22T03:21:21;96244.78;;;9.31;58.38
61814;BME280;57055;-35.296;149.168;2022-07-22T03:23:51;96242.45;;;9.37;58.73
61814;BME280;57055;-35.296;149.168;2022-07-22T03:26:21;96238.05;;;9.43;58.38
61814;BME280;57055;-35.296;149.168;2022-07-22T03:28:50;96238.49;;;9.47;58.27
61814;BME280;57055;-35.296;149.168;2022-07-22T03:31:20;96230.31;;;9.38;58.31
61814;BME280;57055;-35.296;149.168;2022-07-22T03:33:49;96226.78;;;9.33;57.53
61814;BME280;57055;-35.296;149.168;2022-07-22T03:36:19;96220.91;;;9.40;57.22
61814;BME280;57055;-35.296;149.168;2022-07-22T03:38:48;96214.85;;;9.40;56.97
61814;BME280;57055;-35.296;149.168;2022-07-22T03:41:16;96205.43;;;9.38;57.41
61814;BME280;57055;-35.296;149.168;2022-07-22T03:43:46;96201.26;;;9.45;57.45
61814;BME280;57055;-35.296;149.168;2022-07-22T03:46:15;96195.58;;;9.54;56.93
61814;BME280;57055;-35.296;149.168;2022-07-22T03:48:44;96187.52;;;9.63;56.46
61814;BME280;57055;-35.296;149.168;2022-07-22T03:51:14;96184.87;;;9.81;56.10
61814;BME280;57055;-35.296;149.168;2022-07-22T03:53:42;96179.36;;;10.02;55.50
61814;BME280;57055;-35.296;149.168;2022-07-22T03:56:12;96178.31;;;10.12;55.77
61814;BME280;57055;-35.296;149.168;2022-07-22T03:58:41;96175.01;;;10.07;55.66
61814;BME280;57055;-35.296;149.168;2022-07-22T04:01:10;96174.11;;;9.99;55.39
61814;BME280;57055;-35.296;149.168;2022-07-22T04:03:39;96170.54;;;9.93;55.90
61814;BME280;57055;-35.296;149.168;2022-07-22T04:06:08;96172.51;;;9.83;55.28
61814;BME280;57055;-35.296;149.168;2022-07-22T04:08:37;96172.63;;;9.90;56.10
61814;BME280;57055;-35.296;149.168;2022-07-22T04:11:07;96170.28;;;9.74;56.09
61814;BME280;57055;-35.296;149.168;2022-07-22T04:13:36;96172.59;;;9.79;56.02
61814;BME280;57055;-35.296;149.168;2022-07-22T04:16:06;96171.86;;;9.70;55.71
61814;BME280;57055;-35.296;149.168;2022-07-22T04:18:35;96169.14;;;9.63;55.56
61814;BME280;57055;-35.296;149.168;2022-07-22T04:21:04;96168.49;;;9.66;55.55
61814;BME280;57055;-35.296;149.168;2022-07-22T04:23:33;96169.44;;;9.85;55.72
61814;BME280;57055;-35.296;149.168;2022-07-22T04:26:03;96169.99;;;9.56;56.22
61814;BME280;57055;-35.296;149.168;2022-07-22T04:28:34;96169.98;;;9.61;55.63
61814;BME280;57055;-35.296;149.168;2022-07-22T04:31:03;96168.66;;;9.69;55.14
61814;BME280;57055;-35.296;149.168;2022-07-22T04:33:32;96164.57;;;9.73;55.00
61814;BME280;57055;-35.296;149.168;2022-07-22T04:36:01;96169.56;;;9.48;54.84
61814;BME280;57055;-35.296;149.168;2022-07-22T04:38:31;96167.71;;;9.66;55.22
61814;BME280;57055;-35.296;149.168;2022-07-22T04:41:00;96172.67;;;9.45;55.86
61814;BME280;57055;-35.296;149.168;2022-07-22T04:43:30;96167.58;;;9.52;54.59
61814;BME280;57055;-35.296;149.168;2022-07-22T04:46:00;96173.32;;;9.74;55.11
61814;BME280;57055;-35.296;149.168;2022-07-22T04:48:29;96172.03;;;9.70;55.36
61814;BME280;57055;-35.296;149.168;2022-07-22T04:50:59;96172.31;;;9.62;55.96
61814;BME280;57055;-35.296;149.168;2022-07-22T04:53:29;96171.64;;;9.58;56.67
61814;BME280;57055;-35.296;149.168;2022-07-22T04:55:58;96171.10;;;9.54;57.11
61814;BME280;57055;-35.296;149.168;2022-07-22T04:58:27;96172.12;;;9.55;57.39
61814;BME280;57055;-35.296;149.168;2022-07-22T05:00:57;96170.50;;;9.54;57.82
61814;BME280;57055;-35.296;149.168;2022-07-22T05:03:26;96169.72;;;9.49;58.76
61814;BME280;57055;-35.296;149.168;2022-07-22T05:05:54;96168.65;;;9.42;58.91
61814;BME280;57055;-35.296;149.168;2022-07-22T05:08:23;96163.06;;;9.35;58.99
61814;BME280;57055;-35.296;149.168;2022-07-22T05:10:52;96160.77;;;9.65;59.16
61814;BME280;57055;-35.296;149.168;2022-07-22T05:13:20;96163.65;;;9.52;59.17
61814;BME280;57055;-35.296;149.168;2022-07-22T05:15:49;96163.10;;;9.67;59.55
61814;BME280;57055;-35.296;149.168;2022-07-22T05:18:19;96164.95;;;9.74;59.13
61814;BME280;57055;-35.296;149.168;2022-07-22T05:20:49;96162.93;;;9.76;58.91
61814;BME280;57055;-35.296;149.168;2022-07-22T05:23:19;96167.28;;;9.69;58.91
61814;BME280;57055;-35.296;149.168;2022-07-22T05:25:47;96163.65;;;9.50;59.30
61814;BME280;57055;-35.296;149.168;2022-07-22T05:28:16;96171.99;;;9.31;59.89
61814;BME280;57055;-35.296;149.168;2022-07-22T05:30:45;96172.92;;;9.24;60.51
61814;BME280;57055;-35.296;149.168;2022-07-22T05:33:15;96178.41;;;9.38;62.16
61814;BME280;57055;-35.296;149.168;2022-07-22T05:35:43;96174.10;;;9.34;63.74
61814;BME280;57055;-35.296;149.168;2022-07-22T05:38:12;96173.35;;;9.05;64.17
61814;BME280;57055;-35.296;149.168;2022-07-22T05:40:42;96170.43;;;8.96;64.79
61814;BME280;57055;-35.296;149.168;2022-07-22T05:43:10;96168.32;;;8.88;64.69
61814;BME280;57055;-35.296;149.168;2022-07-22T05:45:39;96167.76;;;8.87;64.54
61814;BME280;57055;-35.296;149.168;2022-07-22T05:48:08;96169.97;;;8.83;64.95
61814;BME280;57055;-35.296;149.168;2022-07-22T05:50:37;96175.69;;;9.07;64.77
61814;BME280;57055;-35.296;149.168;2022-07-22T05:53:06;96176.26;;;9.09;64.62
61814;BME280;57055;-35.296;149.168;2022-07-22T05:55:35;96178.57;;;9.11;64.43
61814;BME280;57055;-35.296;149.168;2022-07-22T05:58:04;96178.02;;;9.12;64.41
61814;BME280;57055;-35.296;149.168;2022-07-22T06:00:33;96180.10;;;8.94;64.54
61814;BME280;57055;-35.296;149.168;2022-07-22T06:03:02;96180.35;;;8.93;64.59
61814;BME280;57055;-35.296;149.168;2022-07-22T06:05:31;96184.84;;;9.00;64.73
61814;BME280;57055;-35.296;149.168;2022-07-22T06:08:00;96186.81;;;9.25;64.50
61814;BME280;57055;-35.296;149.168;2022-07-22T06:10:29;96191.37;;;9.02;64.01
61814;BME280;57055;-35.296;149.168;2022-07-22T06:12:58;96201.06;;;8.75;63.91
61814;BME280;57055;-35.296;149.168;2022-07-22T06:15:27;96198.40;;;8.78;65.69
61814;BME280;57055;-35.296;149.168;2022-07-22T06:17:56;96215.90;;;8.83;66.91
61814;BME280;57055;-35.296;149.168;2022-07-22T06:20:25;96206.03;;;8.64;68.31
61814;BME280;57055;-35.296;149.168;2022-07-22T06:22:54;96206.55;;;8.50;68.45
61814;BME280;57055;-35.296;149.168;2022-07-22T06:25:23;96201.67;;;8.46;69.18
61814;BME280;57055;-35.296;149.168;2022-07-22T06:27:53;96201.82;;;8.44;69.40
61814;BME280;57055;-35.296;149.168;2022-07-22T06:30:22;96200.80;;;8.41;69.81
61814;BME280;57055;-35.296;149.168;2022-07-22T06:32:52;96198.77;;;8.40;69.82
61814;BME280;57055;-35.296;149.168;2022-07-22T06:35:22;96197.98;;;8.40;69.30
61814;BME280;57055;-35.296;149.168;2022-07-22T06:37:52;96196.72;;;8.35;69.25
61814;BME280;57055;-35.296;149.168;2022-07-22T06:40:21;96198.26;;;8.39;68.83
61814;BME280;57055;-35.296;149.168;2022-07-22T06:42:50;96198.92;;;8.39;68.71
61814;BME280;57055;-35.296;149.168;2022-07-22T06:45:19;96198.34;;;8.43;68.54
61814;BME280;57055;-35.296;149.168;2022-07-22T06:47:48;96195.42;;;8.49;68.64
61814;BME280;57055;-35.296;149.168;2022-07-22T06:50:17;96194.81;;;8.22;68.36
61814;BME280;57055;-35.296;149.168;2022-07-22T06:52:46;96197.37;;;8.42;68.45
61814;BME280;57055;-35.296;149.168;2022-07-22T06:55:16;96197.48;;;8.46;68.64
61814;BME280;57055;-35.296;149.168;2022-07-22T06:57:45;96197.59;;;8.74;68.71
61814;BME280;57055;-35.296;149.168;2022-07-22T07:00:14;96201.18;;;8.43;69.38
61814;BME280;57055;-35.296;149.168;2022-07-22T07:02:44;96209.52;;;8.42;69.09
61814;BME280;57055;-35.296;149.168;2022-07-22T07:05:13;96217.56;;;8.38;69.15
61814;BME280;57055;-35.296;149.168;2022-07-22T07:07:43;96221.25;;;8.37;69.17
61814;BME280;57055;-35.296;149.168;2022-07-22T07:10:12;96226.01;;;8.34;69.67
61814;BME280;57055;-35.296;149.168;2022-07-22T07:12:41;96226.67;;;8.34;68.83
61814;BME280;57055;-35.296;149.168;2022-07-22T07:15:11;96229.16;;;8.34;69.26
61814;BME280;57055;-35.296;149.168;2022-07-22T07:17:40;96236.73;;;8.33;69.15
61814;BME280;57055;-35.296;149.168;2022-07-22T07:20:09;96236.31;;;8.27;68.70
61814;BME280;57055;-35.296;149.168;2022-07-22T07:22:38;96231.53;;;8.26;68.21
61814;BME280;57055;-35.296;149.168;2022-07-22T07:25:08;96225.66;;;8.18;67.90
61814;BME280;57055;-35.296;149.168;2022-07-22T07:27:38;96226.32;;;8.12;67.98
61814;BME280;57055;-35.296;149.168;2022-07-22T07:30:09;96224.13;;;8.10;67.99
61814;BME280;57055;-35.296;149.168;2022-07-22T07:32:39;96225.86;;;8.02;68.07
61814;BME280;57055;-35.296;149.168;2022-07-22T07:35:09;96225.16;;;8.00;68.02
61814;BME280;57055;-35.296;149.168;2022-07-22T07:37:37;96225.93;;;7.90;68.06
61814;BME280;57055;-35.296;149.168;2022-07-22T07:40:07;96221.05;;;8.08;68.07
61814;BME280;57055;-35.296;149.168;2022-07-22T07:42:37;96227.38;;;7.81;68.09
61814;BME280;57055;-35.296;149.168;2022-07-22T07:45:06;96229.03;;;7.64;68.34
61814;BME280;57055;-35.296;149.168;2022-07-22T07:47:36;96231.53;;;7.93;68.33
61814;BME280;57055;-35.296;149.168;2022-07-22T07:50:07;96235.89;;;8.05;68.59
61814;BME280;57055;-35.296;149.168;2022-07-22T07:52:38;96239.20;;;7.56;68.69
61814;BME280;57055;-35.296;149.168;2022-07-22T07:55:09;96237.38;;;7.83;68.54
61814;BME280;57055;-35.296;149.168;2022-07-22T07:57:39;96230.89;;;7.76;68.60
61814;BME280;57055;-35.296;149.168;2022-07-22T08:00:11;96229.87;;;7.85;68.80
61814;BME280;57055;-35.296;149.168;2022-07-22T08:02:40;96230.34;;;7.86;68.73
61814;BME280;57055;-35.296;149.168;2022-07-22T08:05:10;96227.01;;;7.74;68.87
61814;BME280;57055;-35.296;149.168;2022-07-22T08:07:40;96228.64;;;7.71;68.84
61814;BME280;57055;-35.296;149.168;2022-07-22T08:10:10;96231.12;;;7.70;68.79
61814;BME280;57055;-35.296;149.168;2022-07-22T08:12:39;96234.86;;;7.76;68.35
61814;BME280;57055;-35.296;149.168;2022-07-22T08:15:09;96233.78;;;7.72;68.44
61814;BME280;57055;-35.296;149.168;2022-07-22T08:17:38;96229.40;;;7.46;68.70
61814;BME280;57055;-35.296;149.168;2022-07-22T08:20:08;96230.19;;;7.72;68.36
61814;BME280;57055;-35.296;149.168;2022-07-22T08:22:38;96232.53;;;7.67;68.39
61814;BME280;57055;-35.296;149.168;2022-07-22T08:25:07;96231.67;;;7.41;68.40
61814;BME280;57055;-35.296;149.168;2022-07-22T08:27:36;96234.23;;;7.55;68.35
61814;BME280;57055;-35.296;149.168;2022-07-22T08:30:07;96236.61;;;7.33;68.31
61814;BME280;57055;-35.296;149.168;2022-07-22T08:32:37;96233.15;;;7.44;68.35
61814;BME280;57055;-35.296;149.168;2022-07-22T08:35:07;96241.26;;;7.43;68.43
61814;BME280;57055;-35.296;149.168;2022-07-22T08:37:37;96240.94;;;7.14;68.25
61814;BME280;57055;-35.296;149.168;2022-07-22T08:40:07;96239.11;;;7.37;68.13
61814;BME280;57055;-35.296;149.168;2022-07-22T08:42:39;96241.22;;;7.32;68.17
61814;BME280;57055;-35.296;149.168;2022-07-22T08:45:10;96241.16;;;7.24;68.31
61814;BME280;57055;-35.296;149.168;2022-07-22T08:47:39;96239.00;;;7.24;68.11
61814;BME280;57055;-35.296;149.168;2022-07-22T08:50:09;96239.01;;;7.21;68.04
61814;BME280;57055;-35.296;149.168;2022-07-22T08:52:38;96249.35;;;7.22;67.83
61814;BME280;57055;-35.296;149.168;2022-07-22T08:55:09;96247.76;;;7.17;67.60
61814;BME280;57055;-35.296;149.168;2022-07-22T08:57:43;96244.16;;;7.41;67.51
61814;BME280;57055;-35.296;149.168;2022-07-22T09:00:16;96242.57;;;7.09;67.40
61814;BME280;57055;-35.296;149.168;2022-07-22T09:02:47;96245.28;;;7.04;67.40
61814;BME280;57055;-35.296;149.168;2022-07-22T09:05:17;96248.14;;;6.96;67.72
61814;BME280;57055;-35.296;149.168;2022-07-22T09:07:47;96248.50;;;6.83;67.78
61814;BME280;57055;-35.296;149.168;2022-07-22T09:10:17;96247.43;;;7.00;67.53
61814;BME280;57055;-35.296;149.168;2022-07-22T09:12:57;96247.70;;;6.95;67.51
61814;BME280;57055;-35.296;149.168;2022-07-22T09:15:29;96243.20;;;6.83;67.72
61814;BME280;57055;-35.296;149.168;2022-07-22T09:18:00;96246.40;;;6.62;67.50
61814;BME280;57055;-35.296;149.168;2022-07-22T09:20:30;96245.49;;;6.69;67.55
61814;BME280;57055;-35.296;149.168;2022-07-22T09:23:00;96248.46;;;6.72;67.65
61814;BME280;57055;-35.296;149.168;2022-07-22T09:25:32;96249.07;;;6.49;67.87
61814;BME280;57055;-35.296;149.168;2022-07-22T09:28:12;96247.31;;;6.51;67.73
61814;BME280;57055;-35.296;149.168;2022-07-22T09:30:48;96252.56;;;6.48;67.47
61814;BME280;57055;-35.296;149.168;2022-07-22T09:33:18;96250.01;;;6.57;67.73
61814;BME280;57055;-35.296;149.168;2022-07-22T09:35:49;96246.94;;;6.63;67.60
61814;BME280;57055;-35.296;149.168;2022-07-22T09:38:27;96240.87;;;6.60;67.59
61814;BME280;57055;-35.296;149.168;2022-07-22T09:40:56;96243.45;;;6.48;67.66
61814;BME280;57055;-35.296;149.168;2022-07-22T09:43:26;96244.46;;;6.44;67.70
61814;BME280;57055;-35.296;149.168;2022-07-22T09:45:57;96245.09;;;6.44;67.73
61814;BME280;57055;-35.296;149.168;2022-07-22T09:48:26;96251.48;;;6.34;67.43
61814;BME280;57055;-35.296;149.168;2022-07-22T09:50:57;96255.13;;;6.17;67.58
61814;BME280;57055;-35.296;149.168;2022-07-22T09:53:28;96258.76;;;6.15;67.68
61814;BME280;57055;-35.296;149.168;2022-07-22T09:55:58;96256.53;;;6.33;67.48
61814;BME280;57055;-35.296;149.168;2022-07-22T09:58:28;96252.32;;;6.34;67.49
61814;BME280;57055;-35.296;149.168;2022-07-22T10:01:02;96250.96;;;6.38;67.58
61814;BME280;57055;-35.296;149.168;2022-07-22T10:03:33;96249.88;;;5.96;67.64
61814;BME280;57055;-35.296;149.168;2022-07-22T10:06:04;96250.62;;;6.04;67.72
61814;BME280;57055;-35.296;149.168;2022-07-22T10:08:34;96255.17;;;6.32;67.40
61814;BME280;57055;-35.296;149.168;2022-07-22T10:11:05;96261.44;;;6.22;67.65
61814;BME280;57055;-35.296;149.168;2022-07-22T10:13:35;96265.39;;;6.18;67.61
61814;BME280;57055;-35.296;149.168;2022-07-22T10:16:07;96267.73;;;6.19;67.31
61814;BME280;57055;-35.296;149.168;2022-07-22T10:18:37;96266.88;;;5.94;67.33
61814;BME280;57055;-35.296;149.168;2022-07-22T10:21:08;96265.99;;;6.21;67.39
61814;BME280;57055;-35.296;149.168;2022-07-22T10:24:09;96263.99;;;6.26;67.21
61814;BME280;57055;-35.296;149.168;2022-07-22T10:26:56;96261.54;;;6.26;67.25
61814;BME280;57055;-35.296;149.168;2022-07-22T10:29:28;96256.18;;;6.11;67.12
61814;BME280;57055;-35.296;149.168;2022-07-22T10:32:27;96252.91;;;5.89;67.32
61814;BME280;57055;-35.296;149.168;2022-07-22T10:35:30;96250.78;;;5.82;67.01
61814;BME280;57055;-35.296;149.168;2022-07-22T10:38:03;96256.42;;;5.88;66.59
61814;BME280;57055;-35.296;149.168;2022-07-22T10:40:46;96252.40;;;5.88;66.66
61814;BME280;57055;-35.296;149.168;2022-07-22T10:43:17;96250.45;;;5.81;67.00
61814;BME280;57055;-35.296;149.168;2022-07-22T10:45:49;96249.40;;;5.85;66.69
61814;BME280;57055;-35.296;149.168;2022-07-22T10:48:22;96248.18;;;5.80;66.49
61814;BME280;57055;-35.296;149.168;2022-07-22T10:50:54;96244.46;;;5.73;66.62
61814;BME280;57055;-35.296;149.168;2022-07-22T10:53:25;96248.60;;;5.65;66.86
61814;BME280;57055;-35.296;149.168;2022-07-22T10:56:15;96245.54;;;5.65;66.40
61814;BME280;57055;-35.296;149.168;2022-07-22T10:58:50;96239.14;;;5.76;66.33
61814;BME280;57055;-35.296;149.168;2022-07-22T11:01:22;96236.25;;;5.98;66.07
61814;BME280;57055;-35.296;149.168;2022-07-22T11:03:53;96236.78;;;5.54;66.02
61814;BME280;57055;-35.296;149.168;2022-07-22T11:06:25;96245.67;;;5.46;66.02
61814;BME280;57055;-35.296;149.168;2022-07-22T11:08:56;96252.70;;;5.49;66.09
61814;BME280;57055;-35.296;149.168;2022-07-22T11:11:37;96255.07;;;5.45;66.00
61814;BME280;57055;-35.296;149.168;2022-07-22T11:14:19;96257.28;;;5.42;66.40
61814;BME280;57055;-35.296;149.168;2022-07-22T11:16:50;96257.52;;;5.50;66.07
61814;BME280;57055;-35.296;149.168;2022-07-22T11:19:24;96253.65;;;5.55;66.27
61814;BME280;57055;-35.296;149.168;2022-07-22T11:21:56;96246.68;;;5.61;66.14
61814;BME280;57055;-35.296;149.168;2022-07-22T11:24:27;96243.03;;;5.63;66.57
61814;BME280;57055;-35.296;149.168;2022-07-22T11:26:59;96248.23;;;5.40;67.18
61814;BME280;57055;-35.296;149.168;2022-07-22T11:29:30;96246.94;;;5.39;67.56
61814;BME280;57055;-35.296;149.168;2022-07-22T11:32:01;96248.65;;;5.69;67.57
61814;BME280;57055;-35.296;149.168;2022-07-22T11:34:31;96251.01;;;5.41;67.96
61814;BME280;57055;-35.296;149.168;2022-07-22T11:37:01;96254.76;;;5.31;68.26
61814;BME280;57055;-35.296;149.168;2022-07-22T11:39:32;96254.06;;;5.43;68.21
61814;BME280;57055;-35.296;149.168;2022-07-22T11:42:02;96252.41;;;5.63;68.03
61814;BME280;57055;-35.296;149.168;2022-07-22T11:44:34;96251.37;;;5.59;68.18
61814;BME280;57055;-35.296;149.168;2022-07-22T11:47:05;96245.84;;;5.66;68.38
61814;BME280;57055;-35.296;149.168;2022-07-22T11:49:37;96247.21;;;5.78;68.68
61814;BME280;57055;-35.296;149.168;2022-07-22T11:52:08;96258.97;;;5.53;68.72
61814;BME280;57055;-35.296;149.168;2022-07-22T11:54:38;96256.73;;;5.66;68.41
61814;BME280;57055;-35.296;149.168;2022-07-22T11:57:07;96254.08;;;5.78;68.29
61814;BME280;57055;-35.296;149.168;2022-07-22T11:59:37;96260.69;;;5.87;68.25
61814;BME280;57055;-35.296;149.168;2022-07-22T12:02:06;96262.68;;;5.88;68.29
61814;BME280;57055;-35.296;149.168;2022-07-22T12:04:35;96266.74;;;5.87;68.30
61814;BME280;57055;-35.296;149.168;2022-07-22T12:07:06;96266.15;;;5.85;68.44
61814;BME280;57055;-35.296;149.168;2022-07-22T12:09:36;96264.34;;;5.86;68.33
61814;BME280;57055;-35.296;149.168;2022-07-22T12:12:07;96257.51;;;5.90;68.39
61814;BME280;57055;-35.296;149.168;2022-07-22T12:14:36;96265.09;;;5.96;68.39
61814;BME280;57055;-35.296;149.168;2022-07-22T12:17:13;96270.45;;;5.78;68.90
61814;BME280;57055;-35.296;149.168;2022-07-22T12:19:42;96277.79;;;6.19;68.98
61814;BME280;57055;-35.296;149.168;2022-07-22T12:22:12;96281.17;;;5.63;69.17
61814;BME280;57055;-35.296;149.168;2022-07-22T12:24:58;96274.88;;;5.67;69.15
61814;BME280;57055;-35.296;149.168;2022-07-22T12:27:27;96275.14;;;5.79;69.02
61814;BME280;57055;-35.296;149.168;2022-07-22T12:29:56;96269.17;;;5.92;68.71
61814;BME280;57055;-35.296;149.168;2022-07-22T12:32:27;96268.01;;;5.87;68.85
61814;BME280;57055;-35.296;149.168;2022-07-22T12:34:59;96257.02;;;5.86;68.98
61814;BME280;57055;-35.296;149.168;2022-07-22T12:37:30;96252.87;;;5.75;69.02
61814;BME280;57055;-35.296;149.168;2022-07-22T12:40:01;96241.75;;;5.66;69.17
61814;BME280;57055;-35.296;149.168;2022-07-22T12:42:32;96236.35;;;5.61;69.15
61814;BME280;57055;-35.296;149.168;2022-07-22T12:45:04;96230.47;;;5.53;69.25
61814;BME280;57055;-35.296;149.168;2022-07-22T12:47:46;96223.06;;;5.55;69.22
61814;BME280;57055;-35.296;149.168;2022-07-22T12:50:21;96219.63;;;5.52;69.21
61814;BME280;57055;-35.296;149.168;2022-07-22T12:52:54;96211.77;;;5.67;68.96
61814;BME280;57055;-35.296;149.168;2022-07-22T12:55:25;96210.77;;;5.74;68.88
61814;BME280;57055;-35.296;149.168;2022-07-22T12:57:54;96208.40;;;5.59;68.79